Time;durP1;ratioP1;P1;durP2;ratioP2;P2;SDS_P1;SDS_P2;PMS_P1;PMS_P2;Temp;Humidity;BMP_temperature;BMP_pressure;BME280_temperature;BME280_humidity;BME280_pressure;Samples;Min_cycle;Max_cycle;Signal;HPM_P1;HPM_P2
2023/04/04 03:01:52;;;;;;;0.50;0.32;;;15.90;51.80;;;;;;5616981;22;46018;-62
2023/04/04 03:04:18;;;;;;;0.43;0.22;;;15.80;51.80;;;;;;5008942;28;45743;-63
2023/04/04 03:06:47;;;;;;;0.85;0.30;;;15.80;51.80;;;;;;4997545;28;45580;-62
2023/04/04 03:09:13;;;;;;;0.60;0.43;;;15.90;51.80;;;;;;5007812;28;45480;-61
2023/04/04 03:11:38;;;;;;;0.40;0.40;;;15.80;51.80;;;;;;4979278;28;47284;-63
2023/04/04 03:14:04;;;;;;;0.25;0.25;;;15.80;51.80;;;;;;4991289;28;45297;-61
2023/04/04 03:16:29;;;;;;;0.28;0.20;;;15.80;51.80;;;;;;4982556;28;45330;-63
2023/04/04 03:18:55;;;;;;;0.40;0.30;;;15.80;51.80;;;;;;4974097;28;45286;-61
2023/04/04 03:21:21;;;;;;;0.50;0.28;;;15.80;51.80;;;;;;4953131;28;45485;-61
2023/04/04 03:23:46;;;;;;;0.30;0.30;;;15.80;51.90;;;;;;4992231;28;45332;-62
2023/04/04 03:26:12;;;;;;;0.57;0.30;;;15.80;52.10;;;;;;4987572;28;45636;-61
2023/04/04 03:28:38;;;;;;;0.68;0.40;;;15.80;51.80;;;;;;4994600;28;45357;-62
2023/04/04 03:31:04;;;;;;;0.65;0.30;;;15.80;51.90;;;;;;4986784;28;45840;-61
2023/04/04 03:33:31;;;;;;;0.50;0.40;;;15.80;51.80;;;;;;4993382;28;45074;-61
2023/04/04 03:35:58;;;;;;;0.30;0.30;;;15.80;51.90;;;;;;4967778;28;45164;-63
2023/04/04 03:38:23;;;;;;;0.63;0.30;;;15.70;51.80;;;;;;4993120;28;44783;-61
2023/04/04 03:40:49;;;;;;;0.43;0.40;;;15.80;51.90;;;;;;5005121;22;47026;-64
2023/04/04 03:43:15;;;;;;;0.70;0.32;;;15.70;51.80;;;;;;4995521;28;45260;-62
2023/04/04 03:45:40;;;;;;;0.30;0.30;;;15.70;51.80;;;;;;4998170;28;45235;-63
2023/04/04 03:48:06;;;;;;;0.20;0.20;;;15.70;51.90;;;;;;5007203;28;45612;-62
2023/04/04 03:50:32;;;;;;;0.50;0.30;;;15.70;51.90;;;;;;5005016;28;45521;-62
2023/04/04 03:52:57;;;;;;;0.22;0.22;;;15.70;51.90;;;;;;4989882;28;45480;-62
2023/04/04 03:55:23;;;;;;;0.30;0.30;;;15.70;51.90;;;;;;5005620;28;45282;-61
2023/04/04 03:57:48;;;;;;;0.30;0.30;;;15.70;51.90;;;;;;5009140;28;45530;-62
2023/04/04 04:00:17;;;;;;;0.98;0.28;;;15.70;51.80;;;;;;4998403;28;45816;-61
2023/04/04 04:02:43;;;;;;;0.35;0.30;;;15.70;51.90;;;;;;4982941;28;45271;-63
2023/04/04 04:05:11;;;;;;;1.10;0.60;;;15.60;51.90;;;;;;5003501;28;45844;-60
2023/04/04 04:07:37;;;;;;;0.50;0.30;;;15.60;51.90;;;;;;5001333;28;45302;-63
2023/04/04 04:10:04;;;;;;;0.38;0.30;;;15.60;51.80;;;;;;5002233;28;46011;-63
2023/04/04 04:12:30;;;;;;;0.35;0.30;;;15.60;51.80;;;;;;4999544;28;45596;-63
2023/04/04 04:14:55;;;;;;;0.60;0.40;;;15.60;51.90;;;;;;5001783;28;45482;-61
2023/04/04 04:17:21;;;;;;;0.40;0.30;;;15.60;51.90;;;;;;4995457;28;45503;-61
2023/04/04 04:19:46;;;;;;;0.68;0.30;;;15.60;51.80;;;;;;4987735;28;47012;-63
2023/04/04 04:22:12;;;;;;;0.47;0.35;;;15.60;51.90;;;;;;5000435;28;45480;-63
2023/04/04 04:24:37;;;;;;;0.32;0.32;;;15.60;51.90;;;;;;5001233;28;45512;-61
2023/04/04 04:27:03;;;;;;;0.30;0.30;;;15.60;51.80;;;;;;5001626;28;45775;-62
2023/04/04 04:29:29;;;;;;;0.80;0.32;;;15.60;51.90;;;;;;5004200;28;46081;-61
2023/04/04 04:31:54;;;;;;;0.30;0.30;;;15.60;51.90;;;;;;4994353;28;45550;-62
2023/04/04 04:34:20;;;;;;;0.65;0.40;;;15.50;52.50;;;;;;5000604;28;44857;-63
2023/04/04 04:36:46;;;;;;;0.32;0.30;;;15.50;51.90;;;;;;5005843;28;45315;-61
2023/04/04 04:39:11;;;;;;;0.30;0.30;;;15.50;51.90;;;;;;4986148;28;48021;-63
2023/04/04 04:41:37;;;;;;;0.47;0.40;;;15.50;51.90;;;;;;5001200;28;45581;-63
2023/04/04 04:44:02;;;;;;;0.38;0.30;;;15.50;51.90;;;;;;4990212;28;45278;-62
2023/04/04 04:46:28;;;;;;;0.55;0.50;;;15.50;51.90;;;;;;4997447;28;45710;-63
2023/04/04 04:48:54;;;;;;;0.30;0.30;;;15.50;51.90;;;;;;4952202;28;46250;-63
2023/04/04 04:51:19;;;;;;;0.40;0.40;;;15.50;51.90;;;;;;4999855;28;44671;-62
2023/04/04 04:53:45;;;;;;;0.30;0.30;;;15.50;51.90;;;;;;5004900;28;44961;-62
2023/04/04 04:56:11;;;;;;;0.38;0.30;;;15.50;51.90;;;;;;5001737;28;45547;-63
2023/04/04 04:58:36;;;;;;;0.38;0.28;;;15.50;51.90;;;;;;5003548;28;45257;-63
2023/04/04 05:01:02;;;;;;;0.47;0.40;;;15.50;51.90;;;;;;4968730;28;45870;-63
2023/04/04 05:03:28;;;;;;;0.30;0.30;;;15.50;51.90;;;;;;4988585;28;45017;-61
2023/04/04 05:05:53;;;;;;;0.47;0.28;;;15.40;51.80;;;;;;4997751;28;45503;-62
2023/04/04 05:08:19;;;;;;;0.30;0.30;;;15.40;51.80;;;;;;5007853;28;45270;-63
2023/04/04 05:10:44;;;;;;;0.60;0.30;;;15.40;51.80;;;;;;5002128;28;45126;-62
2023/04/04 05:13:10;;;;;;;0.38;0.38;;;15.40;51.80;;;;;;5001256;28;44654;-61
2023/04/04 05:15:35;;;;;;;0.60;0.30;;;15.40;51.80;;;;;;4995560;28;45276;-62
2023/04/04 05:18:01;;;;;;;0.38;0.30;;;15.40;51.80;;;;;;5004451;28;46020;-62
2023/04/04 05:20:27;;;;;;;0.70;0.40;;;15.40;51.80;;;;;;4987002;28;45338;-63
2023/04/04 05:22:52;;;;;;;1.10;0.57;;;15.40;51.80;;;;;;4974336;28;45194;-62
2023/04/04 05:25:18;;;;;;;0.38;0.32;;;15.40;51.80;;;;;;4999125;28;45268;-63
2023/04/04 05:27:47;;;;;;;0.47;0.32;;;15.40;51.80;;;;;;4989246;28;45897;-63
2023/04/04 05:30:13;;;;;;;0.50;0.32;;;15.40;51.80;;;;;;4998931;28;45207;-65
2023/04/04 05:32:39;;;;;;;0.55;0.47;;;15.40;51.80;;;;;;4959805;28;45565;-63
2023/04/04 05:37:32;;;;;;;0.30;0.30;;;15.40;51.80;;;;;;4999686;28;45218;-63
2023/04/04 05:39:58;;;;;;;0.68;0.32;;;15.40;51.80;;;;;;5005410;28;45316;-62
2023/04/04 05:42:23;;;;;;;0.70;0.50;;;15.40;51.80;;;;;;4999014;28;45405;-63
2023/04/04 05:44:49;;;;;;;1.08;0.60;;;15.40;51.80;;;;;;4989291;28;45306;-63
2023/04/04 05:47:14;;;;;;;13.27;12.57;;;15.40;51.80;;;;;;4992196;28;45909;-63
2023/04/04 05:49:40;;;;;;;1999.90;999.90;;;15.40;51.80;;;;;;4991681;28;45633;-62
2023/04/04 05:52:06;;;;;;;1999.90;999.90;;;15.50;51.80;;;;;;4998311;28;45406;-62
2023/04/04 05:54:31;;;;;;;2.72;1.30;;;15.70;51.20;;;;;;5003244;28;45763;-61
2023/04/04 05:56:59;;;;;;;4.95;2.08;;;15.80;49.90;;;;;;5002105;28;46225;-64
2023/04/04 05:59:25;;;;;;;11.75;8.20;;;15.60;46.40;;;;;;4996696;28;45554;-62
2023/04/04 06:01:51;;;;;;;10.20;3.47;;;15.20;44.20;;;;;;4998205;28;45469;-60
2023/04/04 06:04:17;;;;;;;8.85;3.30;;;15.40;42.70;;;;;;5006323;28;45432;-62
2023/04/04 06:06:42;;;;;;;8.70;3.22;;;15.70;42.20;;;;;;4986476;28;46071;-60
2023/04/04 06:09:08;;;;;;;8.57;3.08;;;15.90;41.90;;;;;;4987272;28;46360;-61
2023/04/04 06:11:33;;;;;;;5.93;2.80;;;16.10;43.40;;;;;;5006379;28;45330;-62
2023/04/04 06:13:59;;;;;;;8.48;2.92;;;16.00;44.40;;;;;;5012338;28;45230;-61
2023/04/04 06:16:25;;;;;;;5.60;2.50;;;16.00;44.90;;;;;;4999598;28;46359;-62
2023/04/04 06:18:50;;;;;;;6.10;2.60;;;16.00;45.10;;;;;;5010212;28;45319;-59
2023/04/04 06:21:16;;;;;;;5.18;1.98;;;16.10;45.20;;;;;;5007692;28;45323;-60
2023/04/04 06:23:42;;;;;;;9.18;2.72;;;16.30;45.40;;;;;;5011922;28;45029;-61
2023/04/04 06:26:07;;;;;;;6.35;2.22;;;16.40;45.30;;;;;;5005618;28;45400;-61
2023/04/04 06:28:33;;;;;;;6.13;2.47;;;16.50;45.30;;;;;;5016294;28;45188;-60
2023/04/04 06:30:59;;;;;;;4.75;2.13;;;16.60;45.20;;;;;;5002620;28;45816;-64
2023/04/04 06:33:25;;;;;;;6.70;1.90;;;16.80;45.30;;;;;;4975934;28;45083;-63
2023/04/04 06:35:50;;;;;;;4.90;2.03;;;16.90;45.30;;;;;;5002809;28;45487;-62
2023/04/04 06:38:16;;;;;;;4.55;2.13;;;17.10;45.30;;;;;;5008261;28;45228;-63
2023/04/04 06:40:42;;;;;;;5.75;2.42;;;17.20;45.20;;;;;;4999596;28;45241;-62
2023/04/04 06:43:09;;;;;;;6.97;2.42;;;17.40;45.30;;;;;;4994736;28;45555;-62
2023/04/04 06:45:34;;;;;;;4.65;2.30;;;17.50;45.20;;;;;;5004208;28;46833;-63
2023/04/04 06:48:01;;;;;;;4.20;2.20;;;17.60;45.20;;;;;;5002554;28;45300;-63
2023/04/04 06:50:28;;;;;;;5.82;2.53;;;17.80;45.20;;;;;;4974685;28;45430;-64
2023/04/04 06:52:54;;;;;;;4.82;1.77;;;17.90;45.00;;;;;;5009000;28;44937;-64
2023/04/04 06:55:20;;;;;;;3.67;1.98;;;18.10;45.10;;;;;;5007977;28;46033;-62
2023/04/04 06:57:46;;;;;;;4.57;2.10;;;18.20;45.20;;;;;;4990672;28;45295;-64
2023/04/04 07:00:15;;;;;;;3.22;1.75;;;18.30;45.10;;;;;;5003698;28;44837;-64
2023/04/04 07:02:40;;;;;;;;;;;18.40;45.10;;;;;;4993151;28;44919;-64
2023/04/04 07:05:06;;;;;;;3.83;1.80;;;18.50;44.50;;;;;;5006939;28;45048;-68
2023/04/04 07:07:32;;;;;;;3.95;1.63;;;18.60;45.10;;;;;;4995243;28;45203;-64
2023/04/04 07:09:57;;;;;;;4.35;2.10;;;18.80;45.10;;;;;;5009051;28;45395;-65
2023/04/04 07:12:23;;;;;;;3.88;1.67;;;18.90;45.00;;;;;;4989669;28;44950;-65
2023/04/04 07:14:49;;;;;;;3.03;1.80;;;19.00;45.00;;;;;;5006839;28;45160;-64
2023/04/04 07:17:14;;;;;;;5.35;1.80;;;19.10;45.00;;;;;;4993016;22;45187;-65
2023/04/04 07:19:40;;;;;;;3.38;1.60;;;19.20;45.00;;;;;;5034567;22;45032;-63
2023/04/04 07:22:05;;;;;;;4.05;1.90;;;19.30;44.90;;;;;;5000353;28;45307;-64
2023/04/04 07:24:31;;;;;;;4.07;2.55;;;19.50;44.90;;;;;;5022512;28;45295;-64
2023/04/04 07:26:56;;;;;;;3.45;1.90;;;19.60;44.90;;;;;;4994283;28;44966;-64
2023/04/04 07:29:22;;;;;;;5.43;2.03;;;19.70;44.80;;;;;;5007837;28;44851;-64
2023/04/04 07:31:48;;;;;;;3.55;1.75;;;19.70;44.80;;;;;;5004117;28;45287;-64
2023/04/04 07:34:14;;;;;;;2.80;1.52;;;19.80;44.80;;;;;;4995987;28;46992;-65
2023/04/04 07:36:39;;;;;;;7.43;2.22;;;19.90;44.80;;;;;;5014394;28;45608;-64
2023/04/04 07:39:05;;;;;;;3.72;1.60;;;20.00;44.80;;;;;;4986727;28;45151;-65
2023/04/04 07:41:32;;;;;;;3.25;1.77;;;20.10;44.70;;;;;;4992967;22;45420;-65
2023/04/04 07:43:57;;;;;;;3.90;1.52;;;20.10;44.70;;;;;;4989760;28;45677;-64
2023/04/04 07:46:23;;;;;;;3.03;1.52;;;20.20;44.70;;;;;;5001643;28;45413;-64
2023/04/04 07:48:49;;;;;;;4.13;1.77;;;20.30;44.70;;;;;;5005987;28;45314;-65
2023/04/04 07:51:15;;;;;;;3.58;2.00;;;20.30;44.70;;;;;;5006452;28;44984;-65
2023/04/04 07:53:40;;;;;;;4.95;1.80;;;20.40;44.70;;;;;;5007559;28;46033;-66
2023/04/04 07:56:06;;;;;;;3.22;1.80;;;20.40;44.70;;;;;;5004376;28;44994;-67
2023/04/04 07:58:33;;;;;;;5.22;1.70;;;20.50;44.70;;;;;;5014786;28;45016;-66
2023/04/04 08:00:59;;;;;;;2.80;1.25;;;20.60;44.70;;;;;;4979244;28;45776;-65
2023/04/04 08:03:25;;;;;;;3.53;1.63;;;20.60;44.70;;;;;;4999767;28;46614;-65
2023/04/04 08:05:50;;;;;;;4.22;1.23;;;20.70;44.60;;;;;;5008219;28;45452;-65
2023/04/04 08:08:16;;;;;;;7.15;1.70;;;20.70;44.60;;;;;;5010724;28;44694;-65
2023/04/04 08:10:44;;;;;;;3.35;1.42;;;20.80;44.60;;;;;;4967761;28;45538;-66
2023/04/04 08:13:10;;;;;;;3.63;1.95;;;20.80;44.60;;;;;;5011282;28;46163;-65
2023/04/04 08:15:36;;;;;;;4.32;1.77;;;20.80;44.50;;;;;;4998908;28;46120;-66
2023/04/04 08:18:01;;;;;;;5.05;1.73;;;20.90;44.60;;;;;;4988945;28;45512;-65
2023/04/04 08:20:27;;;;;;;4.55;1.90;;;21.00;44.60;;;;;;5005528;28;45416;-63
2023/04/04 08:22:53;;;;;;;4.18;1.65;;;21.10;44.50;;;;;;4994280;28;45391;-62
2023/04/04 08:25:19;;;;;;;3.17;1.88;;;21.10;44.50;;;;;;5005019;28;45038;-65
2023/04/04 08:27:44;;;;;;;3.17;1.63;;;21.20;44.50;;;;;;5012889;28;45489;-63
2023/04/04 08:30:11;;;;;;;4.82;1.88;;;21.20;44.50;;;;;;4987248;28;45440;-63
2023/04/04 08:32:37;;;;;;;4.57;2.03;;;21.30;44.50;;;;;;4975339;22;45178;-64
2023/04/04 08:35:03;;;;;;;2.40;1.38;;;21.30;44.40;;;;;;4969246;28;45447;-64
2023/04/04 08:37:29;;;;;;;2.72;1.60;;;21.40;44.40;;;;;;5007845;28;45741;-63
2023/04/04 08:39:55;;;;;;;2.25;1.23;;;21.40;44.40;;;;;;5011209;28;44825;-64
2023/04/04 08:42:22;;;;;;;3.28;1.42;;;21.50;44.50;;;;;;4964091;28;47092;-64
2023/04/04 08:44:48;;;;;;;3.25;1.60;;;21.50;44.50;;;;;;4969493;28;45440;-64
2023/04/04 08:47:15;;;;;;;2.88;1.63;;;21.50;44.40;;;;;;4965282;23;45689;-64
2023/04/04 08:49:42;;;;;;;4.68;1.20;;;21.60;44.40;;;;;;4960082;28;45864;-63
2023/04/04 08:52:09;;;;;;;3.90;1.60;;;21.60;44.40;;;;;;5016199;22;46392;-64
2023/04/04 08:54:34;;;;;;;3.75;1.52;;;21.70;44.30;;;;;;5007723;28;45897;-64
2023/04/04 08:57:01;;;;;;;1.88;1.20;;;21.70;44.30;;;;;;4994519;28;44988;-64
2023/04/04 08:59:27;;;;;;;3.03;1.50;;;21.70;44.20;;;;;;4964669;28;45026;-64
2023/04/04 09:02:03;;;;;;;2.40;1.35;;;21.80;44.30;;;;;;4984570;28;45317;-63
2023/04/04 09:04:29;;;;;;;2.50;1.27;;;21.80;44.20;;;;;;4985526;28;44923;-64
2023/04/04 09:06:54;;;;;;;3.40;1.20;;;21.90;44.20;;;;;;4992200;28;45204;-63
2023/04/04 09:09:21;;;;;;;3.35;1.75;;;21.90;44.20;;;;;;4992690;28;45787;-64
2023/04/04 09:11:47;;;;;;;3.78;1.27;;;21.90;44.10;;;;;;4996736;28;46059;-65
2023/04/04 09:14:12;;;;;;;3.03;1.65;;;22.00;44.10;;;;;;4995406;28;44965;-63
2023/04/04 09:16:38;;;;;;;2.08;1.02;;;22.00;44.00;;;;;;4985340;28;45318;-64
2023/04/04 09:19:03;;;;;;;3.47;1.38;;;22.10;44.10;;;;;;5010351;28;45223;-64
2023/04/04 09:21:32;;;;;;;3.28;1.60;;;22.10;44.10;;;;;;4997030;28;46234;-64
2023/04/04 09:23:59;;;;;;;3.22;1.50;;;22.10;44.00;;;;;;4979481;28;45533;-63
2023/04/04 09:33:09;;;;;;;2.80;1.40;;;22.30;43.60;;;;;;5013122;28;45420;-63
2023/04/04 09:35:40;;;;;;;2.40;1.15;;;22.30;44.00;;;;;;5008034;28;45463;-64
2023/04/04 09:38:06;;;;;;;5.35;1.40;;;22.40;43.80;;;;;;5018544;28;44947;-63
2023/04/04 09:40:31;;;;;;;2.15;1.25;;;22.40;43.90;;;;;;4988980;28;45422;-64
2023/04/04 09:43:01;;;;;;;2.22;1.13;;;22.40;43.80;;;;;;4996710;28;46477;-63
2023/04/04 09:45:30;;;;;;;2.03;1.25;;;22.50;43.80;;;;;;4973055;28;44918;-63
2023/04/04 09:47:55;;;;;;;3.35;1.17;;;22.50;43.90;;;;;;4959961;28;45049;-64
2023/04/04 09:50:22;;;;;;;1.60;1.10;;;22.60;43.90;;;;;;5005453;28;45492;-64
2023/04/04 09:52:49;;;;;;;2.53;1.48;;;22.60;43.80;;;;;;4987502;28;45975;-63
2023/04/04 09:55:15;;;;;;;1.83;1.00;;;22.60;43.80;;;;;;4977268;28;44661;-64
2023/04/04 09:57:41;;;;;;;1.92;1.23;;;22.60;43.70;;;;;;5011539;28;45283;-63
2023/04/04 10:00:10;;;;;;;2.88;1.27;;;22.70;43.70;;;;;;5003764;28;45443;-65
2023/04/04 10:02:36;;;;;;;2.35;1.17;;;22.70;43.70;;;;;;4985809;28;46457;-63
2023/04/04 10:05:02;;;;;;;1.63;1.20;;;22.80;43.80;;;;;;4985775;28;44709;-63
2023/04/04 10:07:28;;;;;;;2.38;1.25;;;22.80;43.70;;;;;;4961605;28;45274;-64
2023/04/04 10:09:56;;;;;;;2.78;1.13;;;22.80;43.60;;;;;;4996416;28;45371;-63
2023/04/04 10:12:23;;;;;;;2.38;1.00;;;22.80;43.60;;;;;;4992261;28;46101;-63
2023/04/04 10:14:55;;;;;;;1.65;1.20;;;22.90;43.60;;;;;;4984011;28;45381;-63
2023/04/04 10:17:20;;;;;;;2.45;1.20;;;22.90;43.50;;;;;;5000722;28;44917;-63
2023/04/04 10:19:46;;;;;;;2.40;1.10;;;22.90;43.60;;;;;;4996276;28;45314;-63
2023/04/04 10:22:12;;;;;;;1.60;1.00;;;23.00;43.60;;;;;;4992759;28;45701;-64
2023/04/04 10:24:37;;;;;;;5.40;1.35;;;23.00;43.70;;;;;;4986021;28;45080;-64
2023/04/04 10:27:03;;;;;;;1.38;1.10;;;23.00;43.60;;;;;;4986939;28;45536;-64
2023/04/04 10:29:28;;;;;;;3.40;1.15;;;23.00;43.50;;;;;;5015589;28;45247;-65
2023/04/04 10:31:59;;;;;;;1.67;1.02;;;23.00;43.50;;;;;;4988831;28;46185;-65
2023/04/04 10:34:43;;;;;;;2.00;1.27;;;23.10;43.40;;;;;;4983842;28;45177;-64
2023/04/04 10:37:12;;;;;;;1.70;1.00;;;23.10;43.30;;;;;;4990867;28;45315;-64
2023/04/04 10:40:03;;;;;;;1.73;1.10;;;23.10;43.30;;;;;;5011444;28;45612;-64
2023/04/04 10:42:32;;;;;;;2.35;1.00;;;23.10;43.10;;;;;;4994068;28;45511;-65
2023/04/04 10:44:57;;;;;;;1.25;0.80;;;23.20;43.30;;;;;;5002375;28;45062;-65
2023/04/04 10:47:24;;;;;;;1.90;1.25;;;23.20;43.30;;;;;;4972198;28;45301;-65
2023/04/04 10:49:50;;;;;;;2.47;1.13;;;23.20;43.20;;;;;;4979264;28;45237;-65
2023/04/04 10:52:20;;;;;;;2.33;1.27;;;23.20;43.30;;;;;;4988799;28;45181;-64
2023/04/04 10:54:47;;;;;;;1.98;1.00;;;23.30;43.10;;;;;;4982747;28;45966;-65
2023/04/04 10:57:15;;;;;;;2.00;1.33;;;23.20;43.00;;;;;;4962969;28;45934;-63
2023/04/04 11:00:00;;;;;;;2.83;1.00;;;23.20;43.10;;;;;;5002703;28;44725;-64
2023/04/04 11:02:45;;;;;;;2.28;1.10;;;23.20;42.70;;;;;;4989531;28;46434;-63
2023/04/04 11:05:11;;;;;;;4.75;1.00;;;23.00;42.60;;;;;;5007634;28;45205;-64
2023/04/04 11:07:39;;;;;;;2.70;1.25;;;23.00;43.20;;;;;;5002979;28;45279;-65
2023/04/04 11:10:12;;;;;;;2.88;1.17;;;22.90;43.20;;;;;;4993869;28;45324;-64
2023/04/04 11:12:44;;;;;;;1.45;1.00;;;22.80;43.20;;;;;;4980128;28;46042;-66
2023/04/04 11:15:11;;;;;;;1.30;0.93;;;22.80;43.50;;;;;;4994002;28;45198;-64
2023/04/04 11:17:53;;;;;;;2.03;1.15;;;22.70;43.50;;;;;;5009494;28;45436;-65
2023/04/04 11:20:21;;;;;;;2.65;1.25;;;22.70;43.50;;;;;;4994224;28;45892;-65
2023/04/04 11:23:08;;;;;;;3.92;1.10;;;22.60;43.70;;;;;;4997653;28;46027;-65
2023/04/04 11:25:36;;;;;;;5.80;1.35;;;22.50;43.80;;;;;;5005451;28;45185;-64
2023/04/04 11:28:06;;;;;;;1.73;1.05;;;22.50;43.90;;;;;;4999707;28;45463;-64
2023/04/04 11:30:36;;;;;;;7.50;1.13;;;22.40;43.90;;;;;;5002839;28;45117;-64
2023/04/04 11:33:01;;;;;;;1.52;1.00;;;22.40;44.00;;;;;;5013061;28;45322;-64
2023/04/04 11:35:27;;;;;;;3.42;1.08;;;22.40;44.20;;;;;;4991155;28;45315;-64
2023/04/04 11:37:53;;;;;;;4.35;1.38;;;22.40;44.20;;;;;;4984374;28;45136;-64
2023/04/04 11:40:18;;;;;;;1.55;0.98;;;22.30;44.20;;;;;;5007116;28;45172;-65
2023/04/04 11:42:44;;;;;;;2.15;1.00;;;22.20;44.30;;;;;;5001239;28;45630;-65
2023/04/04 11:45:17;;;;;;;2.00;1.00;;;22.20;44.30;;;;;;4995986;28;46357;-65
2023/04/04 11:47:46;;;;;;;1.95;1.10;;;22.20;44.30;;;;;;4986689;28;45360;-65
2023/04/04 11:50:13;;;;;;;1.27;0.73;;;22.10;44.40;;;;;;4977730;28;45404;-64
2023/04/04 11:52:40;;;;;;;5.13;1.15;;;22.10;44.50;;;;;;4998121;28;45278;-64
2023/04/04 11:55:16;;;;;;;1.73;0.90;;;22.00;44.60;;;;;;4995360;28;44959;-63
2023/04/04 11:57:42;;;;;;;2.22;1.10;;;22.00;44.60;;;;;;5008755;28;45846;-63
2023/04/04 12:00:08;;;;;;;2.67;1.02;;;21.90;44.60;;;;;;5005854;28;45271;-66
2023/04/04 12:02:34;;;;;;;1.70;0.98;;;21.90;44.70;;;;;;4991450;28;45411;-67
2023/04/04 12:04:59;;;;;;;2.28;1.25;;;21.90;44.80;;;;;;4983123;28;45375;-67
2023/04/04 12:07:26;;;;;;;2.03;1.10;;;21.90;44.90;;;;;;4964866;28;45250;-66
2023/04/04 12:09:51;;;;;;;2.08;1.08;;;21.80;44.90;;;;;;4981472;28;45581;-65
2023/04/04 12:12:17;;;;;;;1.85;1.10;;;21.80;44.90;;;;;;4998140;28;45867;-65
2023/04/04 12:14:42;;;;;;;1.13;1.00;;;21.70;44.90;;;;;;4999998;28;45947;-65
2023/04/04 12:17:08;;;;;;;2.85;1.00;;;21.70;45.00;;;;;;4985215;28;45159;-65
2023/04/04 12:19:37;;;;;;;1.80;1.00;;;21.70;45.00;;;;;;4997729;28;45377;-65
2023/04/04 12:22:03;;;;;;;2.58;1.17;;;21.60;45.10;;;;;;4989194;28;45219;-66
2023/04/04 12:24:29;;;;;;;2.05;1.00;;;21.60;45.20;;;;;;4998812;28;44822;-67
2023/04/04 12:26:57;;;;;;;2.45;1.27;;;21.60;45.00;;;;;;4979353;28;45479;-66
2023/04/04 12:29:23;;;;;;;2.40;1.35;;;21.50;45.10;;;;;;4998230;28;46212;-66
2023/04/04 12:31:48;;;;;;;3.15;0.90;;;21.50;45.20;;;;;;4969906;28;45273;-66
2023/04/04 12:34:23;;;;;;;4.47;0.95;;;21.50;45.30;;;;;;4978548;28;45574;-65
2023/04/04 12:36:53;;;;;;;3.75;1.02;;;21.50;45.30;;;;;;4992890;28;45213;-66
2023/04/04 12:39:19;;;;;;;2.58;1.10;;;21.40;45.30;;;;;;4991363;28;45780;-64
2023/04/04 12:41:59;;;;;;;2.03;1.13;;;21.40;46.00;;;;;;5002106;28;45886;-64
2023/04/04 12:44:34;;;;;;;3.63;1.02;;;21.40;45.40;;;;;;5012979;28;45121;-64
2023/04/04 12:47:06;;;;;;;1.70;1.05;;;21.40;45.60;;;;;;5004533;28;45538;-64
2023/04/04 12:49:38;;;;;;;1.70;1.00;;;21.30;45.50;;;;;;5008834;28;46071;-64
2023/04/04 12:52:05;;;;;;;2.92;1.08;;;21.30;45.50;;;;;;5008008;28;46083;-63
2023/04/04 12:54:36;;;;;;;2.38;0.85;;;21.30;45.60;;;;;;5014038;28;44692;-64
2023/04/04 12:57:03;;;;;;;2.17;1.20;;;21.30;45.70;;;;;;4996120;28;45268;-64
2023/04/04 12:59:29;;;;;;;1.98;1.00;;;21.20;45.70;;;;;;5009332;28;45240;-64
2023/04/04 13:01:55;;;;;;;1.15;0.80;;;21.20;45.70;;;;;;4990249;28;45899;-67
2023/04/04 13:04:20;;;;;;;1.50;0.90;;;21.20;45.80;;;;;;4997006;28;45284;-67
2023/04/04 13:06:48;;;;;;;1.00;0.80;;;21.20;45.80;;;;;;4975696;28;44739;-67
2023/04/04 13:09:21;;;;;;;2.03;0.95;;;21.10;45.80;;;;;;4995711;28;45229;-67
2023/04/04 13:12:04;;;;;;;2.30;1.20;;;21.10;45.90;;;;;;5003296;28;46436;-67
2023/04/04 13:15:01;;;;;;;1.15;0.90;;;21.10;45.90;;;;;;4992816;28;44838;-67
2023/04/04 13:17:43;;;;;;;2.15;1.20;;;21.00;45.90;;;;;;4984908;28;45282;-67
2023/04/04 13:20:10;;;;;;;1.55;1.10;;;21.00;46.00;;;;;;4987155;28;45713;-67
2023/04/04 13:22:36;;;;;;;1.90;0.98;;;21.00;46.10;;;;;;4993383;28;45913;-67
2023/04/04 13:25:03;;;;;;;1.83;1.00;;;21.00;46.10;;;;;;4981447;28;45155;-67
2023/04/04 13:27:28;;;;;;;3.33;1.13;;;21.00;46.10;;;;;;4975556;28;46034;-66
2023/04/04 13:29:54;;;;;;;3.30;0.90;;;21.00;46.20;;;;;;5012733;28;45476;-67
2023/04/04 13:32:19;;;;;;;3.67;1.00;;;20.90;46.10;;;;;;5000180;28;44853;-67
2023/04/04 13:34:45;;;;;;;1.25;0.80;;;20.90;46.20;;;;;;5009757;28;45345;-68
2023/04/04 13:37:10;;;;;;;2.35;1.20;;;20.90;46.20;;;;;;5006243;28;45605;-67
2023/04/04 13:39:36;;;;;;;1.20;0.80;;;20.80;46.20;;;;;;4990984;28;45381;-67
2023/04/04 13:42:02;;;;;;;2.80;1.45;;;20.90;46.10;;;;;;5003934;28;45512;-64
2023/04/04 13:44:28;;;;;;;2.70;1.08;;;20.80;46.20;;;;;;4988723;28;45487;-65
2023/04/04 13:46:53;;;;;;;1.25;0.75;;;20.80;46.30;;;;;;4986228;28;45775;-65
2023/04/04 13:49:19;;;;;;;2.50;1.10;;;20.70;46.20;;;;;;4989020;28;45159;-67
2023/04/04 13:51:45;;;;;;;3.45;1.00;;;20.70;46.30;;;;;;4993505;28;45840;-65
2023/04/04 13:54:11;;;;;;;2.75;1.13;;;20.70;46.40;;;;;;5010266;28;45206;-65
2023/04/04 13:56:36;;;;;;;1.60;0.90;;;20.70;46.40;;;;;;5005451;28;45264;-67
2023/04/04 13:59:02;;;;;;;3.83;0.88;;;20.70;46.40;;;;;;4993795;28;45236;-67
2023/04/04 14:01:28;;;;;;;1.05;0.80;;;20.60;46.40;;;;;;5002657;28;45825;-67
2023/04/04 14:03:54;;;;;;;1.27;0.90;;;20.60;46.50;;;;;;4964798;28;45332;-67
2023/04/04 14:06:19;;;;;;;3.40;1.00;;;20.60;46.50;;;;;;5009099;28;45271;-67
2023/04/04 14:08:46;;;;;;;1.45;0.88;;;20.60;46.60;;;;;;5009498;28;44839;-67
2023/04/04 14:11:12;;;;;;;1.85;0.95;;;20.60;46.60;;;;;;5003349;28;45381;-67
2023/04/04 14:13:37;;;;;;;1.38;0.90;;;20.50;46.50;;;;;;5010978;28;45349;-66
2023/04/04 14:16:03;;;;;;;2.55;1.17;;;20.50;46.60;;;;;;5003899;28;45245;-64
2023/04/04 14:18:29;;;;;;;1.98;1.10;;;20.50;46.60;;;;;;4998424;28;44734;-65
2023/04/04 14:20:54;;;;;;;1.55;1.00;;;20.50;46.60;;;;;;4986532;28;46645;-64
2023/04/04 14:23:20;;;;;;;2.40;0.93;;;20.50;46.60;;;;;;4999494;28;45709;-64
2023/04/04 14:25:48;;;;;;;1.52;0.77;;;20.50;46.70;;;;;;5011228;28;45556;-66
2023/04/04 14:28:14;;;;;;;1.73;1.10;;;20.40;46.70;;;;;;4987202;28;45138;-67
2023/04/04 14:30:39;;;;;;;4.75;1.02;;;20.50;46.80;;;;;;5005310;28;46206;-64
2023/04/04 14:33:05;;;;;;;1.55;0.80;;;20.40;46.80;;;;;;5013317;28;44711;-65
2023/04/04 14:35:30;;;;;;;2.28;0.90;;;20.40;46.90;;;;;;5009936;28;45263;-63
2023/04/04 14:37:56;;;;;;;1.23;0.90;;;20.40;46.90;;;;;;5012259;28;45224;-65
2023/04/04 14:40:22;;;;;;;4.53;0.77;;;20.40;46.90;;;;;;5007152;28;46870;-65
2023/04/04 14:42:47;;;;;;;1.42;0.88;;;20.40;47.00;;;;;;4995332;28;45112;-65
2023/04/04 14:45:14;;;;;;;1.05;0.80;;;20.30;46.90;;;;;;5007873;28;45413;-64
2023/04/04 14:47:40;;;;;;;1.67;0.90;;;20.30;46.90;;;;;;4975930;28;45797;-64
2023/04/04 14:50:07;;;;;;;2.83;1.30;;;20.30;46.90;;;;;;5012836;28;45288;-64
2023/04/04 14:52:32;;;;;;;3.53;1.08;;;20.30;47.00;;;;;;4963256;28;45093;-65
2023/04/04 14:54:58;;;;;;;2.72;1.10;;;20.30;47.00;;;;;;4990068;28;44726;-66
2023/04/04 14:57:23;;;;;;;1.75;0.93;;;20.20;47.00;;;;;;5004653;28;45050;-66
2023/04/04 14:59:49;;;;;;;1.73;0.88;;;20.30;47.10;;;;;;4997061;28;45192;-63
2023/04/04 15:02:15;;;;;;;3.13;0.98;;;20.20;47.10;;;;;;5005006;28;45343;-64
2023/04/04 15:04:41;;;;;;;1.40;0.93;;;20.20;47.20;;;;;;5015807;28;44883;-64
2023/04/04 15:07:07;;;;;;;0.82;0.65;;;20.20;47.20;;;;;;5010546;28;45007;-64
2023/04/04 15:09:33;;;;;;;1.00;0.85;;;20.20;47.30;;;;;;5011996;28;46175;-63
2023/04/04 15:11:58;;;;;;;1.58;0.80;;;20.10;47.30;;;;;;5009712;28;45315;-63
2023/04/04 15:14:24;;;;;;;1.52;0.95;;;20.10;47.40;;;;;;5013872;28;45335;-63
2023/04/04 15:16:50;;;;;;;1.98;1.05;;;20.10;47.50;;;;;;4989830;28;47374;-63
2023/04/04 15:19:15;;;;;;;1.73;0.80;;;20.00;47.50;;;;;;4980921;28;45988;-64
2023/04/04 15:21:41;;;;;;;1.23;0.77;;;20.00;47.50;;;;;;4999124;28;45281;-63
2023/04/04 15:24:06;;;;;;;1.63;0.93;;;19.90;47.50;;;;;;5002425;28;45182;-64
2023/04/04 15:26:33;;;;;;;2.25;1.00;;;19.90;47.60;;;;;;5011772;28;45180;-64
2023/04/04 15:28:58;;;;;;;1.73;0.63;;;19.90;47.60;;;;;;4991499;28;46059;-64
2023/04/04 15:31:25;;;;;;;2.45;1.27;;;19.90;47.60;;;;;;5002652;28;45558;-63
2023/04/04 15:33:51;;;;;;;3.42;0.70;;;19.80;47.60;;;;;;4994100;28;45492;-63
2023/04/04 15:36:16;;;;;;;2.78;1.00;;;19.80;47.60;;;;;;5005609;28;44903;-63
2023/04/04 15:38:42;;;;;;;2.22;1.05;;;19.80;47.70;;;;;;4992959;28;45289;-65
2023/04/04 15:41:08;;;;;;;2.05;0.88;;;19.80;47.70;;;;;;4992301;28;45516;-65
2023/04/04 15:43:34;;;;;;;2.30;1.13;;;19.80;47.70;;;;;;5006899;28;45389;-65
2023/04/04 15:46:00;;;;;;;1.52;0.80;;;19.70;47.60;;;;;;4974553;28;44960;-62
2023/04/04 15:48:25;;;;;;;2.22;0.90;;;19.70;47.70;;;;;;5003593;28;46051;-63
2023/04/04 15:50:51;;;;;;;2.17;1.10;;;19.70;47.70;;;;;;5000558;28;44712;-64
2023/04/04 15:53:16;;;;;;;1.50;0.80;;;19.60;47.70;;;;;;4997398;28;45408;-64